sensor_id;sensor_type;location;lat;lon;timestamp;P1;durP1;ratioP1;P2;durP2;ratioP2
41643;SDS011;44236;48.098;11.582;2023-02-16T00:00:19;6.75;;;3.40;;
41643;SDS011;44236;48.098;11.582;2023-02-16T00:02:50;6.22;;;3.20;;
41643;SDS011;44236;48.098;11.582;2023-02-16T00:05:21;8.13;;;3.00;;
41643;SDS011;44236;48.098;11.582;2023-02-16T00:10:13;4.85;;;3.03;;
41643;SDS011;44236;48.098;11.582;2023-02-16T00:12:39;14.73;;;4.28;;
41643;SDS011;44236;48.098;11.582;2023-02-16T00:15:23;5.85;;;3.40;;
41643;SDS011;44236;48.098;11.582;2023-02-16T00:17:49;6.85;;;3.45;;
41643;SDS011;44236;48.098;11.582;2023-02-16T00:20:14;6.07;;;3.30;;
41643;SDS011;44236;48.098;11.582;2023-02-16T00:22:41;5.95;;;2.83;;
41643;SDS011;44236;48.098;11.582;2023-02-16T00:25:07;7.03;;;3.55;;
41643;SDS011;44236;48.098;11.582;2023-02-16T00:27:34;6.03;;;3.78;;
41643;SDS011;44236;48.098;11.582;2023-02-16T00:30:00;9.13;;;3.30;;
41643;SDS011;44236;48.098;11.582;2023-02-16T00:32:27;6.70;;;3.55;;
41643;SDS011;44236;48.098;11.582;2023-02-16T00:34:52;4.20;;;2.90;;
41643;SDS011;44236;48.098;11.582;2023-02-16T00:37:18;4.47;;;3.33;;
41643;SDS011;44236;48.098;11.582;2023-02-16T00:39:44;5.25;;;3.22;;
41643;SDS011;44236;48.098;11.582;2023-02-16T00:42:15;5.47;;;3.13;;
41643;SDS011;44236;48.098;11.582;2023-02-16T00:44:48;7.72;;;3.22;;
41643;SDS011;44236;48.098;11.582;2023-02-16T00:47:21;5.55;;;2.65;;
41643;SDS011;44236;48.098;11.582;2023-02-16T00:49:54;3.75;;;2.33;;
41643;SDS011;44236;48.098;11.582;2023-02-16T00:57:31;4.53;;;2.80;;
41643;SDS011;44236;48.098;11.582;2023-02-16T01:00:00;6.05;;;3.33;;
41643;SDS011;44236;48.098;11.582;2023-02-16T01:02:32;4.85;;;2.83;;
41643;SDS011;44236;48.098;11.582;2023-02-16T01:04:58;6.18;;;2.90;;
41643;SDS011;44236;48.098;11.582;2023-02-16T01:07:26;4.72;;;2.85;;
41643;SDS011;44236;48.098;11.582;2023-02-16T01:10:11;5.95;;;3.25;;
41643;SDS011;44236;48.098;11.582;2023-02-16T01:12:55;6.40;;;2.97;;
41643;SDS011;44236;48.098;11.582;2023-02-16T01:15:21;3.85;;;2.70;;
41643;SDS011;44236;48.098;11.582;2023-02-16T01:17:49;4.35;;;2.78;;
41643;SDS011;44236;48.098;11.582;2023-02-16T01:20:16;5.15;;;2.85;;
41643;SDS011;44236;48.098;11.582;2023-02-16T01:22:44;5.65;;;2.92;;
41643;SDS011;44236;48.098;11.582;2023-02-16T01:25:10;4.28;;;2.80;;
41643;SDS011;44236;48.098;11.582;2023-02-16T01:27:36;5.72;;;2.58;;
41643;SDS011;44236;48.098;11.582;2023-02-16T01:30:06;4.20;;;2.90;;
41643;SDS011;44236;48.098;11.582;2023-02-16T01:32:36;4.50;;;2.85;;
41643;SDS011;44236;48.098;11.582;2023-02-16T01:35:02;5.28;;;2.70;;
41643;SDS011;44236;48.098;11.582;2023-02-16T01:37:28;4.95;;;3.10;;
41643;SDS011;44236;48.098;11.582;2023-02-16T01:39:54;4.75;;;2.70;;
41643;SDS011;44236;48.098;11.582;2023-02-16T01:44:58;3.60;;;2.35;;
41643;SDS011;44236;48.098;11.582;2023-02-16T01:49:54;6.10;;;3.53;;
41643;SDS011;44236;48.098;11.582;2023-02-16T01:52:24;5.07;;;2.50;;
41643;SDS011;44236;48.098;11.582;2023-02-16T01:54:59;3.53;;;2.45;;
41643;SDS011;44236;48.098;11.582;2023-02-16T01:57:51;6.00;;;2.83;;
41643;SDS011;44236;48.098;11.582;2023-02-16T02:00:26;4.60;;;2.65;;
41643;SDS011;44236;48.098;11.582;2023-02-16T02:03:15;7.30;;;3.00;;
41643;SDS011;44236;48.098;11.582;2023-02-16T02:06:02;6.03;;;2.45;;
41643;SDS011;44236;48.098;11.582;2023-02-16T02:08:34;6.72;;;2.63;;
41643;SDS011;44236;48.098;11.582;2023-02-16T02:13:46;4.68;;;3.00;;
41643;SDS011;44236;48.098;11.582;2023-02-16T02:16:21;4.05;;;2.33;;
41643;SDS011;44236;48.098;11.582;2023-02-16T02:18:50;4.80;;;3.08;;
41643;SDS011;44236;48.098;11.582;2023-02-16T02:40:05;5.57;;;2.65;;
41643;SDS011;44236;48.098;11.582;2023-02-16T02:42:43;3.70;;;2.38;;
41643;SDS011;44236;48.098;11.582;2023-02-16T02:45:37;4.40;;;2.33;;
41643;SDS011;44236;48.098;11.582;2023-02-16T02:48:09;3.88;;;2.13;;
41643;SDS011;44236;48.098;11.582;2023-02-16T02:53:26;5.60;;;2.57;;
41643;SDS011;44236;48.098;11.582;2023-02-16T02:55:55;6.28;;;2.90;;
41643;SDS011;44236;48.098;11.582;2023-02-16T02:58:43;3.80;;;2.15;;
41643;SDS011;44236;48.098;11.582;2023-02-16T03:01:32;4.78;;;2.30;;
41643;SDS011;44236;48.098;11.582;2023-02-16T03:04:00;3.88;;;2.20;;
41643;SDS011;44236;48.098;11.582;2023-02-16T03:06:27;4.50;;;2.53;;
41643;SDS011;44236;48.098;11.582;2023-02-16T03:08:59;3.97;;;2.17;;
41643;SDS011;44236;48.098;11.582;2023-02-16T03:11:29;4.25;;;2.17;;
41643;SDS011;44236;48.098;11.582;2023-02-16T03:14:15;4.20;;;2.80;;
41643;SDS011;44236;48.098;11.582;2023-02-16T03:17:00;4.57;;;2.63;;
41643;SDS011;44236;48.098;11.582;2023-02-16T03:19:49;3.38;;;2.38;;
41643;SDS011;44236;48.098;11.582;2023-02-16T03:22:34;3.45;;;2.25;;
41643;SDS011;44236;48.098;11.582;2023-02-16T03:25:24;3.58;;;2.15;;
41643;SDS011;44236;48.098;11.582;2023-02-16T03:28:12;3.80;;;2.43;;
41643;SDS011;44236;48.098;11.582;2023-02-16T03:30:56;4.50;;;2.60;;
41643;SDS011;44236;48.098;11.582;2023-02-16T03:33:25;5.05;;;2.33;;
41643;SDS011;44236;48.098;11.582;2023-02-16T03:35:52;4.18;;;2.22;;
41643;SDS011;44236;48.098;11.582;2023-02-16T03:38:18;3.72;;;2.50;;
41643;SDS011;44236;48.098;11.582;2023-02-16T03:40:44;4.97;;;2.47;;
41643;SDS011;44236;48.098;11.582;2023-02-16T03:43:11;3.88;;;2.20;;
41643;SDS011;44236;48.098;11.582;2023-02-16T03:45:38;3.80;;;2.45;;
41643;SDS011;44236;48.098;11.582;2023-02-16T03:48:06;5.38;;;2.20;;
41643;SDS011;44236;48.098;11.582;2023-02-16T03:50:33;4.00;;;2.42;;
41643;SDS011;44236;48.098;11.582;2023-02-16T03:52:58;4.57;;;2.20;;
41643;SDS011;44236;48.098;11.582;2023-02-16T03:55:36;3.80;;;1.95;;
41643;SDS011;44236;48.098;11.582;2023-02-16T03:58:07;4.88;;;2.25;;
41643;SDS011;44236;48.098;11.582;2023-02-16T04:00:34;3.28;;;2.03;;
41643;SDS011;44236;48.098;11.582;2023-02-16T04:03:01;3.60;;;2.20;;
41643;SDS011;44236;48.098;11.582;2023-02-16T04:05:28;4.63;;;2.50;;
41643;SDS011;44236;48.098;11.582;2023-02-16T04:07:53;3.67;;;2.28;;
41643;SDS011;44236;48.098;11.582;2023-02-16T04:10:22;5.88;;;2.00;;
41643;SDS011;44236;48.098;11.582;2023-02-16T04:12:48;3.95;;;2.15;;
41643;SDS011;44236;48.098;11.582;2023-02-16T04:15:15;3.55;;;2.00;;
41643;SDS011;44236;48.098;11.582;2023-02-16T04:17:46;3.33;;;2.00;;
41643;SDS011;44236;48.098;11.582;2023-02-16T04:20:13;3.28;;;2.08;;
41643;SDS011;44236;48.098;11.582;2023-02-16T04:22:41;3.60;;;2.03;;
41643;SDS011;44236;48.098;11.582;2023-02-16T04:25:08;4.68;;;2.28;;
41643;SDS011;44236;48.098;11.582;2023-02-16T04:27:33;11.48;;;2.20;;
41643;SDS011;44236;48.098;11.582;2023-02-16T04:30:00;3.35;;;1.98;;
41643;SDS011;44236;48.098;11.582;2023-02-16T04:32:26;4.18;;;1.95;;
41643;SDS011;44236;48.098;11.582;2023-02-16T04:34:51;4.07;;;2.08;;
41643;SDS011;44236;48.098;11.582;2023-02-16T04:37:17;3.47;;;1.90;;
41643;SDS011;44236;48.098;11.582;2023-02-16T04:39:43;4.68;;;1.90;;
41643;SDS011;44236;48.098;11.582;2023-02-16T04:42:08;5.38;;;2.70;;
41643;SDS011;44236;48.098;11.582;2023-02-16T04:44:34;4.20;;;2.08;;
41643;SDS011;44236;48.098;11.582;2023-02-16T04:46:59;3.88;;;2.13;;
41643;SDS011;44236;48.098;11.582;2023-02-16T04:49:25;4.30;;;2.58;;
41643;SDS011;44236;48.098;11.582;2023-02-16T04:51:50;4.57;;;2.30;;
41643;SDS011;44236;48.098;11.582;2023-02-16T04:54:16;3.08;;;2.05;;
41643;SDS011;44236;48.098;11.582;2023-02-16T04:56:44;5.00;;;2.63;;
41643;SDS011;44236;48.098;11.582;2023-02-16T04:59:10;4.70;;;2.15;;
41643;SDS011;44236;48.098;11.582;2023-02-16T05:01:37;3.65;;;2.00;;
41643;SDS011;44236;48.098;11.582;2023-02-16T05:04:02;7.47;;;2.38;;
41643;SDS011;44236;48.098;11.582;2023-02-16T05:06:28;4.35;;;2.10;;
41643;SDS011;44236;48.098;11.582;2023-02-16T05:08:54;3.45;;;2.08;;
41643;SDS011;44236;48.098;11.582;2023-02-16T05:11:19;3.67;;;2.20;;
41643;SDS011;44236;48.098;11.582;2023-02-16T05:14:03;4.18;;;2.15;;
41643;SDS011;44236;48.098;11.582;2023-02-16T05:16:48;4.47;;;2.17;;
41643;SDS011;44236;48.098;11.582;2023-02-16T05:19:14;3.58;;;2.00;;
41643;SDS011;44236;48.098;11.582;2023-02-16T05:21:39;3.13;;;2.03;;
41643;SDS011;44236;48.098;11.582;2023-02-16T05:24:09;3.58;;;2.10;;
41643;SDS011;44236;48.098;11.582;2023-02-16T05:26:36;4.63;;;2.20;;
41643;SDS011;44236;48.098;11.582;2023-02-16T05:29:06;4.13;;;2.22;;
41643;SDS011;44236;48.098;11.582;2023-02-16T05:31:31;8.10;;;2.13;;
41643;SDS011;44236;48.098;11.582;2023-02-16T05:33:57;5.03;;;3.08;;
41643;SDS011;44236;48.098;11.582;2023-02-16T05:36:23;4.68;;;2.65;;
41643;SDS011;44236;48.098;11.582;2023-02-16T05:38:49;10.88;;;3.38;;
41643;SDS011;44236;48.098;11.582;2023-02-16T05:41:14;11.75;;;4.22;;
41643;SDS011;44236;48.098;11.582;2023-02-16T05:44:00;11.98;;;4.65;;
41643;SDS011;44236;48.098;11.582;2023-02-16T05:46:27;15.68;;;5.55;;
41643;SDS011;44236;48.098;11.582;2023-02-16T05:48:56;10.48;;;4.40;;
41643;SDS011;44236;48.098;11.582;2023-02-16T05:51:22;13.35;;;4.85;;
41643;SDS011;44236;48.098;11.582;2023-02-16T05:53:48;13.05;;;5.10;;
41643;SDS011;44236;48.098;11.582;2023-02-16T05:56:14;17.90;;;5.13;;
41643;SDS011;44236;48.098;11.582;2023-02-16T05:58:40;23.67;;;5.85;;
41643;SDS011;44236;48.098;11.582;2023-02-16T06:01:06;18.00;;;4.97;;
41643;SDS011;44236;48.098;11.582;2023-02-16T06:03:32;11.40;;;4.07;;
41643;SDS011;44236;48.098;11.582;2023-02-16T06:05:58;16.42;;;5.13;;
41643;SDS011;44236;48.098;11.582;2023-02-16T06:08:26;16.00;;;5.25;;
41643;SDS011;44236;48.098;11.582;2023-02-16T06:10:52;11.88;;;5.32;;
41643;SDS011;44236;48.098;11.582;2023-02-16T06:13:19;18.52;;;6.38;;
41643;SDS011;44236;48.098;11.582;2023-02-16T06:15:45;17.13;;;5.97;;
41643;SDS011;44236;48.098;11.582;2023-02-16T06:18:11;12.80;;;5.18;;
41643;SDS011;44236;48.098;11.582;2023-02-16T06:20:38;18.80;;;5.13;;
41643;SDS011;44236;48.098;11.582;2023-02-16T06:23:05;12.60;;;5.53;;
41643;SDS011;44236;48.098;11.582;2023-02-16T06:25:32;14.00;;;4.90;;
41643;SDS011;44236;48.098;11.582;2023-02-16T06:27:58;20.50;;;5.93;;
41643;SDS011;44236;48.098;11.582;2023-02-16T06:30:24;9.43;;;4.28;;
41643;SDS011;44236;48.098;11.582;2023-02-16T06:32:50;17.02;;;4.90;;
41643;SDS011;44236;48.098;11.582;2023-02-16T06:35:16;18.90;;;4.18;;
41643;SDS011;44236;48.098;11.582;2023-02-16T06:37:41;12.63;;;5.65;;
41643;SDS011;44236;48.098;11.582;2023-02-16T06:40:08;14.57;;;5.53;;
41643;SDS011;44236;48.098;11.582;2023-02-16T06:42:35;17.48;;;5.25;;
41643;SDS011;44236;48.098;11.582;2023-02-16T06:45:02;18.17;;;5.43;;
41643;SDS011;44236;48.098;11.582;2023-02-16T06:47:28;15.43;;;5.35;;
41643;SDS011;44236;48.098;11.582;2023-02-16T06:49:54;15.40;;;5.15;;
41643;SDS011;44236;48.098;11.582;2023-02-16T06:52:20;16.23;;;5.03;;
41643;SDS011;44236;48.098;11.582;2023-02-16T06:54:45;17.58;;;4.90;;
41643;SDS011;44236;48.098;11.582;2023-02-16T06:57:11;15.15;;;5.63;;
41643;SDS011;44236;48.098;11.582;2023-02-16T06:59:37;14.48;;;5.03;;
41643;SDS011;44236;48.098;11.582;2023-02-16T07:02:03;17.88;;;5.53;;
41643;SDS011;44236;48.098;11.582;2023-02-16T07:04:28;13.05;;;4.95;;
41643;SDS011;44236;48.098;11.582;2023-02-16T07:06:54;14.35;;;5.70;;
41643;SDS011;44236;48.098;11.582;2023-02-16T07:09:20;15.00;;;6.10;;
41643;SDS011;44236;48.098;11.582;2023-02-16T07:11:45;15.90;;;6.60;;
41643;SDS011;44236;48.098;11.582;2023-02-16T07:14:11;14.20;;;5.63;;
41643;SDS011;44236;48.098;11.582;2023-02-16T07:16:37;13.98;;;5.45;;
41643;SDS011;44236;48.098;11.582;2023-02-16T07:19:02;14.70;;;5.97;;
41643;SDS011;44236;48.098;11.582;2023-02-16T07:21:29;12.13;;;5.43;;
41643;SDS011;44236;48.098;11.582;2023-02-16T07:23:55;15.10;;;5.80;;
41643;SDS011;44236;48.098;11.582;2023-02-16T07:26:20;9.43;;;5.40;;
41643;SDS011;44236;48.098;11.582;2023-02-16T07:28:46;13.40;;;5.47;;
41643;SDS011;44236;48.098;11.582;2023-02-16T07:31:13;14.07;;;5.65;;
41643;SDS011;44236;48.098;11.582;2023-02-16T07:33:39;13.27;;;5.45;;
41643;SDS011;44236;48.098;11.582;2023-02-16T07:36:05;9.05;;;4.50;;
41643;SDS011;44236;48.098;11.582;2023-02-16T07:38:32;15.02;;;6.22;;
41643;SDS011;44236;48.098;11.582;2023-02-16T07:40:58;13.73;;;5.60;;
41643;SDS011;44236;48.098;11.582;2023-02-16T07:43:24;12.30;;;5.38;;
41643;SDS011;44236;48.098;11.582;2023-02-16T07:45:49;13.18;;;7.18;;
41643;SDS011;44236;48.098;11.582;2023-02-16T07:48:15;11.90;;;5.28;;
41643;SDS011;44236;48.098;11.582;2023-02-16T07:50:42;10.75;;;5.20;;
41643;SDS011;44236;48.098;11.582;2023-02-16T07:53:08;12.18;;;5.25;;
41643;SDS011;44236;48.098;11.582;2023-02-16T07:55:40;12.82;;;5.93;;
41643;SDS011;44236;48.098;11.582;2023-02-16T07:58:07;11.63;;;6.00;;
41643;SDS011;44236;48.098;11.582;2023-02-16T08:00:33;13.85;;;4.78;;
41643;SDS011;44236;48.098;11.582;2023-02-16T08:02:59;9.93;;;5.13;;
41643;SDS011;44236;48.098;11.582;2023-02-16T08:05:25;11.15;;;5.60;;
41643;SDS011;44236;48.098;11.582;2023-02-16T08:07:50;10.93;;;4.82;;
41643;SDS011;44236;48.098;11.582;2023-02-16T08:10:16;10.70;;;5.00;;
41643;SDS011;44236;48.098;11.582;2023-02-16T08:12:42;7.63;;;4.90;;
41643;SDS011;44236;48.098;11.582;2023-02-16T08:15:08;12.13;;;5.35;;
41643;SDS011;44236;48.098;11.582;2023-02-16T08:17:34;9.25;;;5.32;;
41643;SDS011;44236;48.098;11.582;2023-02-16T08:20:00;11.82;;;4.82;;
41643;SDS011;44236;48.098;11.582;2023-02-16T08:22:27;11.27;;;5.55;;
41643;SDS011;44236;48.098;11.582;2023-02-16T08:24:53;11.48;;;5.30;;
41643;SDS011;44236;48.098;11.582;2023-02-16T08:27:21;9.85;;;4.72;;
41643;SDS011;44236;48.098;11.582;2023-02-16T08:29:48;10.38;;;5.35;;
41643;SDS011;44236;48.098;11.582;2023-02-16T08:32:14;10.02;;;4.82;;
41643;SDS011;44236;48.098;11.582;2023-02-16T08:34:40;10.07;;;5.43;;
41643;SDS011;44236;48.098;11.582;2023-02-16T08:37:06;9.68;;;4.80;;
41643;SDS011;44236;48.098;11.582;2023-02-16T08:39:31;11.07;;;4.90;;
41643;SDS011;44236;48.098;11.582;2023-02-16T08:41:58;8.07;;;4.25;;
41643;SDS011;44236;48.098;11.582;2023-02-16T08:44:25;7.80;;;4.90;;
41643;SDS011;44236;48.098;11.582;2023-02-16T08:46:52;9.27;;;5.07;;
41643;SDS011;44236;48.098;11.582;2023-02-16T08:49:20;7.13;;;4.50;;
41643;SDS011;44236;48.098;11.582;2023-02-16T08:51:49;10.27;;;4.50;;
41643;SDS011;44236;48.098;11.582;2023-02-16T08:54:17;8.43;;;4.18;;
41643;SDS011;44236;48.098;11.582;2023-02-16T08:56:49;8.02;;;4.60;;
41643;SDS011;44236;48.098;11.582;2023-02-16T08:59:15;9.93;;;4.80;;
41643;SDS011;44236;48.098;11.582;2023-02-16T09:01:42;10.65;;;4.75;;
41643;SDS011;44236;48.098;11.582;2023-02-16T09:04:09;8.90;;;4.53;;
41643;SDS011;44236;48.098;11.582;2023-02-16T09:06:36;8.30;;;4.03;;
41643;SDS011;44236;48.098;11.582;2023-02-16T09:09:03;6.85;;;4.15;;
41643;SDS011;44236;48.098;11.582;2023-02-16T09:11:29;7.45;;;4.60;;
41643;SDS011;44236;48.098;11.582;2023-02-16T09:13:55;7.35;;;3.90;;
41643;SDS011;44236;48.098;11.582;2023-02-16T09:16:22;6.97;;;4.70;;
41643;SDS011;44236;48.098;11.582;2023-02-16T09:18:48;8.13;;;4.30;;
41643;SDS011;44236;48.098;11.582;2023-02-16T09:21:22;7.63;;;4.18;;
41643;SDS011;44236;48.098;11.582;2023-02-16T09:23:49;6.55;;;4.05;;
41643;SDS011;44236;48.098;11.582;2023-02-16T09:26:19;6.75;;;3.95;;
41643;SDS011;44236;48.098;11.582;2023-02-16T09:28:46;7.97;;;4.50;;
41643;SDS011;44236;48.098;11.582;2023-02-16T09:31:17;8.23;;;3.90;;
41643;SDS011;44236;48.098;11.582;2023-02-16T09:33:47;7.63;;;4.38;;
41643;SDS011;44236;48.098;11.582;2023-02-16T09:36:13;7.47;;;3.47;;
41643;SDS011;44236;48.098;11.582;2023-02-16T09:38:39;7.22;;;4.18;;
41643;SDS011;44236;48.098;11.582;2023-02-16T09:41:06;9.55;;;4.00;;
41643;SDS011;44236;48.098;11.582;2023-02-16T09:43:54;9.02;;;4.65;;
41643;SDS011;44236;48.098;11.582;2023-02-16T09:46:27;6.80;;;4.07;;
41643;SDS011;44236;48.098;11.582;2023-02-16T09:48:55;9.13;;;4.57;;
41643;SDS011;44236;48.098;11.582;2023-02-16T09:51:22;9.48;;;4.32;;
41643;SDS011;44236;48.098;11.582;2023-02-16T09:53:56;9.00;;;4.07;;
41643;SDS011;44236;48.098;11.582;2023-02-16T09:56:36;9.05;;;4.05;;
41643;SDS011;44236;48.098;11.582;2023-02-16T10:04:14;7.03;;;4.10;;
41643;SDS011;44236;48.098;11.582;2023-02-16T10:09:14;7.20;;;4.25;;
41643;SDS011;44236;48.098;11.582;2023-02-16T10:11:46;7.35;;;4.57;;
41643;SDS011;44236;48.098;11.582;2023-02-16T10:16:53;7.10;;;3.72;;
41643;SDS011;44236;48.098;11.582;2023-02-16T10:22:13;6.68;;;4.00;;
41643;SDS011;44236;48.098;11.582;2023-02-16T10:24:45;7.22;;;3.97;;
41643;SDS011;44236;48.098;11.582;2023-02-16T10:27:24;7.13;;;3.88;;
41643;SDS011;44236;48.098;11.582;2023-02-16T10:29:58;6.72;;;3.47;;
41643;SDS011;44236;48.098;11.582;2023-02-16T10:32:25;5.55;;;3.25;;
41643;SDS011;44236;48.098;11.582;2023-02-16T10:35:19;7.75;;;4.32;;
41643;SDS011;44236;48.098;11.582;2023-02-16T10:43:24;6.43;;;3.70;;
41643;SDS011;44236;48.098;11.582;2023-02-16T10:46:05;6.97;;;4.05;;
41643;SDS011;44236;48.098;11.582;2023-02-16T10:48:50;7.22;;;3.90;;
41643;SDS011;44236;48.098;11.582;2023-02-16T10:51:18;6.93;;;4.18;;
41643;SDS011;44236;48.098;11.582;2023-02-16T10:53:46;5.68;;;3.17;;
41643;SDS011;44236;48.098;11.582;2023-02-16T10:58:56;7.60;;;3.65;;
41643;SDS011;44236;48.098;11.582;2023-02-16T11:01:30;5.30;;;3.20;;
41643;SDS011;44236;48.098;11.582;2023-02-16T11:04:01;7.05;;;3.88;;
41643;SDS011;44236;48.098;11.582;2023-02-16T11:06:27;6.72;;;4.05;;
41643;SDS011;44236;48.098;11.582;2023-02-16T11:08:57;5.32;;;3.90;;
41643;SDS011;44236;48.098;11.582;2023-02-16T11:11:37;6.30;;;3.72;;
41643;SDS011;44236;48.098;11.582;2023-02-16T11:14:06;6.35;;;3.75;;
41643;SDS011;44236;48.098;11.582;2023-02-16T11:16:43;6.68;;;3.97;;
41643;SDS011;44236;48.098;11.582;2023-02-16T11:19:20;6.88;;;3.58;;
41643;SDS011;44236;48.098;11.582;2023-02-16T11:21:49;5.93;;;3.40;;
41643;SDS011;44236;48.098;11.582;2023-02-16T11:24:32;6.05;;;3.38;;
41643;SDS011;44236;48.098;11.582;2023-02-16T11:29:37;7.35;;;3.70;;
41643;SDS011;44236;48.098;11.582;2023-02-16T11:32:08;6.05;;;3.72;;
41643;SDS011;44236;48.098;11.582;2023-02-16T11:34:39;7.07;;;3.43;;
41643;SDS011;44236;48.098;11.582;2023-02-16T11:37:16;5.28;;;3.45;;
41643;SDS011;44236;48.098;11.582;2023-02-16T11:39:58;4.68;;;2.90;;
41643;SDS011;44236;48.098;11.582;2023-02-16T11:42:33;6.60;;;3.90;;
41643;SDS011;44236;48.098;11.582;2023-02-16T11:45:04;6.43;;;3.40;;
41643;SDS011;44236;48.098;11.582;2023-02-16T11:52:52;6.15;;;3.63;;
41643;SDS011;44236;48.098;11.582;2023-02-16T11:57:51;7.88;;;4.43;;
41643;SDS011;44236;48.098;11.582;2023-02-16T12:00:19;7.30;;;4.45;;
41643;SDS011;44236;48.098;11.582;2023-02-16T12:13:50;7.40;;;3.90;;
41643;SDS011;44236;48.098;11.582;2023-02-16T12:16:36;6.95;;;4.15;;
41643;SDS011;44236;48.098;11.582;2023-02-16T12:19:21;6.80;;;4.03;;
41643;SDS011;44236;48.098;11.582;2023-02-16T12:22:01;6.68;;;4.10;;
41643;SDS011;44236;48.098;11.582;2023-02-16T12:24:54;7.55;;;4.22;;
41643;SDS011;44236;48.098;11.582;2023-02-16T12:44:46;5.95;;;3.60;;
41643;SDS011;44236;48.098;11.582;2023-02-16T12:47:22;5.68;;;3.63;;
41643;SDS011;44236;48.098;11.582;2023-02-16T12:49:55;5.78;;;3.60;;
41643;SDS011;44236;48.098;11.582;2023-02-16T12:55:08;8.02;;;4.22;;
41643;SDS011;44236;48.098;11.582;2023-02-16T12:57:56;8.93;;;4.03;;
41643;SDS011;44236;48.098;11.582;2023-02-16T13:05:45;7.30;;;4.55;;
41643;SDS011;44236;48.098;11.582;2023-02-16T13:08:28;5.95;;;3.80;;
41643;SDS011;44236;48.098;11.582;2023-02-16T13:13:32;7.47;;;4.60;;
41643;SDS011;44236;48.098;11.582;2023-02-16T13:16:16;6.68;;;4.10;;
41643;SDS011;44236;48.098;11.582;2023-02-16T13:19:01;8.77;;;4.05;;
41643;SDS011;44236;48.098;11.582;2023-02-16T13:37:59;7.35;;;4.30;;
41643;SDS011;44236;48.098;11.582;2023-02-16T13:43:38;5.15;;;3.63;;
41643;SDS011;44236;48.098;11.582;2023-02-16T13:46:06;6.03;;;3.47;;
41643;SDS011;44236;48.098;11.582;2023-02-16T13:48:51;6.68;;;4.28;;
41643;SDS011;44236;48.098;11.582;2023-02-16T13:51:18;6.15;;;3.38;;
41643;SDS011;44236;48.098;11.582;2023-02-16T13:53:50;5.30;;;3.72;;
41643;SDS011;44236;48.098;11.582;2023-02-16T13:56:21;8.10;;;3.55;;
41643;SDS011;44236;48.098;11.582;2023-02-16T13:58:53;5.20;;;3.20;;
41643;SDS011;44236;48.098;11.582;2023-02-16T14:01:47;5.80;;;3.58;;
41643;SDS011;44236;48.098;11.582;2023-02-16T14:06:47;5.47;;;3.38;;
41643;SDS011;44236;48.098;11.582;2023-02-16T14:25:02;8.25;;;3.47;;
41643;SDS011;44236;48.098;11.582;2023-02-16T14:30:13;6.82;;;3.50;;
41643;SDS011;44236;48.098;11.582;2023-02-16T14:35:14;6.88;;;4.00;;
41643;SDS011;44236;48.098;11.582;2023-02-16T14:37:54;6.22;;;3.05;;
41643;SDS011;44236;48.098;11.582;2023-02-16T14:40:38;7.10;;;3.97;;
41643;SDS011;44236;48.098;11.582;2023-02-16T14:43:39;5.85;;;3.22;;
41643;SDS011;44236;48.098;11.582;2023-02-16T14:48:55;8.40;;;3.92;;
41643;SDS011;44236;48.098;11.582;2023-02-16T14:51:38;4.60;;;2.88;;
41643;SDS011;44236;48.098;11.582;2023-02-16T14:57:22;6.03;;;3.72;;
41643;SDS011;44236;48.098;11.582;2023-02-16T15:00:29;6.68;;;3.38;;
41643;SDS011;44236;48.098;11.582;2023-02-16T15:03:02;4.88;;;2.92;;
41643;SDS011;44236;48.098;11.582;2023-02-16T15:05:38;5.07;;;2.97;;
41643;SDS011;44236;48.098;11.582;2023-02-16T15:08:08;4.85;;;2.95;;
41643;SDS011;44236;48.098;11.582;2023-02-16T15:10:41;6.55;;;3.22;;
41643;SDS011;44236;48.098;11.582;2023-02-16T15:13:22;4.50;;;2.85;;
41643;SDS011;44236;48.098;11.582;2023-02-16T15:15:51;5.53;;;3.08;;
41643;SDS011;44236;48.098;11.582;2023-02-16T15:18:22;4.55;;;2.88;;
41643;SDS011;44236;48.098;11.582;2023-02-16T15:20:53;4.00;;;2.60;;
41643;SDS011;44236;48.098;11.582;2023-02-16T15:23:23;6.50;;;3.30;;
41643;SDS011;44236;48.098;11.582;2023-02-16T15:25:54;4.63;;;2.78;;
41643;SDS011;44236;48.098;11.582;2023-02-16T15:28:21;5.68;;;2.80;;
41643;SDS011;44236;48.098;11.582;2023-02-16T15:35:50;5.47;;;2.97;;
41643;SDS011;44236;48.098;11.582;2023-02-16T15:38:22;5.35;;;3.67;;
41643;SDS011;44236;48.098;11.582;2023-02-16T15:40:53;5.40;;;2.92;;
41643;SDS011;44236;48.098;11.582;2023-02-16T15:48:48;6.35;;;2.88;;
41643;SDS011;44236;48.098;11.582;2023-02-16T16:01:40;5.30;;;2.80;;
41643;SDS011;44236;48.098;11.582;2023-02-16T16:04:17;6.13;;;2.50;;
41643;SDS011;44236;48.098;11.582;2023-02-16T16:06:46;4.38;;;2.60;;
41643;SDS011;44236;48.098;11.582;2023-02-16T16:09:21;4.18;;;2.47;;
41643;SDS011;44236;48.098;11.582;2023-02-16T16:11:49;7.22;;;2.78;;
41643;SDS011;44236;48.098;11.582;2023-02-16T16:14:17;10.93;;;3.35;;
41643;SDS011;44236;48.098;11.582;2023-02-16T16:16:43;11.27;;;3.88;;
41643;SDS011;44236;48.098;11.582;2023-02-16T16:19:14;8.52;;;2.72;;
41643;SDS011;44236;48.098;11.582;2023-02-16T16:21:46;7.88;;;3.00;;
41643;SDS011;44236;48.098;11.582;2023-02-16T16:24:36;8.27;;;3.10;;
41643;SDS011;44236;48.098;11.582;2023-02-16T16:27:12;7.45;;;2.80;;
41643;SDS011;44236;48.098;11.582;2023-02-16T16:29:39;8.85;;;3.35;;
41643;SDS011;44236;48.098;11.582;2023-02-16T16:32:22;11.87;;;2.97;;
41643;SDS011;44236;48.098;11.582;2023-02-16T16:34:50;9.07;;;3.03;;
41643;SDS011;44236;48.098;11.582;2023-02-16T16:39:58;7.25;;;2.47;;
41643;SDS011;44236;48.098;11.582;2023-02-16T16:42:33;5.15;;;2.67;;
41643;SDS011;44236;48.098;11.582;2023-02-16T16:45:14;5.07;;;2.97;;
41643;SDS011;44236;48.098;11.582;2023-02-16T16:48:01;7.07;;;2.88;;
41643;SDS011;44236;48.098;11.582;2023-02-16T16:50:42;10.38;;;3.05;;
41643;SDS011;44236;48.098;11.582;2023-02-16T16:55:53;6.60;;;3.63;;
41643;SDS011;44236;48.098;11.582;2023-02-16T16:58:18;12.10;;;3.75;;
41643;SDS011;44236;48.098;11.582;2023-02-16T17:00:44;10.82;;;3.30;;
41643;SDS011;44236;48.098;11.582;2023-02-16T17:03:15;9.15;;;3.60;;
41643;SDS011;44236;48.098;11.582;2023-02-16T17:05:42;7.68;;;3.55;;
41643;SDS011;44236;48.098;11.582;2023-02-16T17:08:08;10.15;;;4.13;;
41643;SDS011;44236;48.098;11.582;2023-02-16T17:10:35;8.93;;;3.60;;
41643;SDS011;44236;48.098;11.582;2023-02-16T17:13:03;10.98;;;4.07;;
41643;SDS011;44236;48.098;11.582;2023-02-16T17:15:37;9.15;;;3.85;;
41643;SDS011;44236;48.098;11.582;2023-02-16T17:18:17;8.80;;;3.67;;
41643;SDS011;44236;48.098;11.582;2023-02-16T17:20:44;10.95;;;3.47;;
41643;SDS011;44236;48.098;11.582;2023-02-16T17:23:10;11.68;;;2.97;;
41643;SDS011;44236;48.098;11.582;2023-02-16T17:25:38;6.60;;;2.78;;
41643;SDS011;44236;48.098;11.582;2023-02-16T17:28:04;7.75;;;3.33;;
41643;SDS011;44236;48.098;11.582;2023-02-16T17:30:30;11.57;;;3.22;;
41643;SDS011;44236;48.098;11.582;2023-02-16T17:32:56;8.73;;;3.15;;
41643;SDS011;44236;48.098;11.582;2023-02-16T17:35:23;8.80;;;3.38;;
41643;SDS011;44236;48.098;11.582;2023-02-16T17:37:48;6.55;;;3.25;;
41643;SDS011;44236;48.098;11.582;2023-02-16T17:40:16;7.80;;;3.00;;
41643;SDS011;44236;48.098;11.582;2023-02-16T17:42:44;22.25;;;4.03;;
41643;SDS011;44236;48.098;11.582;2023-02-16T17:45:11;6.45;;;3.13;;
41643;SDS011;44236;48.098;11.582;2023-02-16T17:47:39;6.57;;;2.63;;
41643;SDS011;44236;48.098;11.582;2023-02-16T17:50:06;6.65;;;3.03;;
41643;SDS011;44236;48.098;11.582;2023-02-16T17:52:32;11.60;;;2.97;;